Time;durP1;ratioP1;P1;durP2;ratioP2;P2;SDS_P1;SDS_P2;PMS_P1;PMS_P2;Temp;Humidity;BMP_temperature;BMP_pressure;BME280_temperature;BME280_humidity;BME280_pressure;Samples;Min_cycle;Max_cycle;Signal;HPM_P1;HPM_P2
2023/06/07 00:01:55;;;;;;;18.27;7.03;;;;;;;12.79;100.00;102143.50;5088899;28;20482;-50
2023/06/07 00:04:21;;;;;;;16.42;6.80;;;;;;;12.77;100.00;102148.22;5082329;28;20029;-50
2023/06/07 00:06:47;;;;;;;16.85;7.10;;;;;;;12.75;100.00;102142.16;5082680;28;20024;-47
2023/06/07 00:09:12;;;;;;;23.30;7.30;;;;;;;12.73;100.00;102144.16;5075387;28;20379;-50
2023/06/07 00:11:38;;;;;;;18.77;7.15;;;;;;;12.67;100.00;102155.63;5086316;28;20032;-47
2023/06/07 00:14:03;;;;;;;12.40;6.50;;;;;;;12.65;100.00;102146.84;5089191;28;20035;-51
2023/06/07 00:16:29;;;;;;;15.73;6.35;;;;;;;12.73;100.00;102152.25;5081595;28;20043;-51
2023/06/07 00:18:55;;;;;;;22.48;7.53;;;;;;;12.63;100.00;102140.75;5085175;28;20089;-49
2023/06/07 00:21:22;;;;;;;15.48;7.20;;;;;;;12.66;100.00;102141.25;5071163;28;20486;-47
2023/06/07 00:23:48;;;;;;;23.02;7.15;;;;;;;12.64;100.00;102150.56;5080955;28;20036;-49
2023/06/07 00:26:13;;;;;;;24.63;7.55;;;;;;;12.64;100.00;102146.00;5070010;28;20071;-51
2023/06/07 00:28:38;;;;;;;17.70;6.78;;;;;;;12.62;100.00;102139.06;5071403;28;20110;-51
2023/06/07 00:31:04;;;;;;;23.13;7.35;;;;;;;12.63;100.00;102143.44;5070408;28;20118;-48
2023/06/07 00:33:29;;;;;;;13.85;6.90;;;;;;;12.63;100.00;102141.59;5061381;28;20068;-48
2023/06/07 00:35:55;;;;;;;15.90;7.07;;;;;;;12.60;100.00;102135.69;5090126;28;20042;-49
2023/06/07 00:38:22;;;;;;;14.10;7.07;;;;;;;12.60;100.00;102135.69;5081991;28;20103;-48
2023/06/07 00:40:47;;;;;;;18.23;7.70;;;;;;;12.57;100.00;102133.31;5084503;28;20478;-50
2023/06/07 00:43:13;;;;;;;23.75;8.10;;;;;;;12.52;100.00;102136.50;5071552;28;20108;-52
2023/06/07 00:45:38;;;;;;;24.92;6.68;;;;;;;12.50;100.00;102136.63;5069691;28;20111;-51
2023/06/07 00:48:03;;;;;;;16.35;7.00;;;;;;;12.47;100.00;102139.66;5081788;28;20387;-51
2023/06/07 00:50:29;;;;;;;22.30;8.05;;;;;;;12.45;100.00;102140.84;5084826;28;20116;-48
2023/06/07 00:52:55;;;;;;;15.65;7.13;;;;;;;12.39;100.00;102136.94;5074276;28;20016;-50
2023/06/07 00:55:20;;;;;;;21.27;7.30;;;;;;;12.41;100.00;102142.19;5089609;28;20028;-51
2023/06/07 00:57:45;;;;;;;17.65;7.30;;;;;;;12.39;100.00;102145.03;5082463;28;20075;-48
2023/06/07 01:00:13;;;;;;;19.80;8.50;;;;;;;12.36;100.00;102145.38;5087187;28;20020;-48
2023/06/07 01:02:39;;;;;;;21.02;7.88;;;;;;;12.41;100.00;102148.44;5087382;28;20031;-48
2023/06/07 01:05:06;;;;;;;18.90;7.72;;;;;;;12.40;100.00;102145.88;5073327;28;20046;-52
2023/06/07 01:07:32;;;;;;;18.73;7.33;;;;;;;12.32;100.00;102141.28;5084330;28;20024;-49
2023/06/07 01:09:59;;;;;;;18.38;8.52;;;;;;;12.31;100.00;102145.00;5070757;28;20048;-49
2023/06/07 01:12:26;;;;;;;24.90;7.97;;;;;;;12.26;100.00;102145.47;5064095;28;20098;-48
2023/06/07 01:14:53;;;;;;;21.85;8.52;;;;;;;12.24;100.00;102147.53;5088559;28;20035;-50
2023/06/07 01:17:24;;;;;;;24.58;8.98;;;;;;;12.28;100.00;102145.34;5070991;28;20032;-49
2023/06/07 01:19:53;;;;;;;19.80;8.35;;;;;;;12.29;100.00;102141.63;5072325;28;20105;-51
2023/06/07 01:22:19;;;;;;;23.63;9.35;;;;;;;12.30;100.00;102149.56;5086271;28;20035;-48
2023/06/07 01:24:47;;;;;;;24.08;8.95;;;;;;;12.34;100.00;102152.78;5059161;28;20020;-52
2023/06/07 01:27:14;;;;;;;16.52;8.55;;;;;;;12.35;100.00;102145.50;5090318;28;20024;-52
2023/06/07 01:29:39;;;;;;;18.27;8.15;;;;;;;12.36;100.00;102147.22;5087051;28;20070;-52
2023/06/07 01:32:07;;;;;;;24.27;8.65;;;;;;;12.35;100.00;102146.38;5091692;28;20545;-49
2023/06/07 01:34:33;;;;;;;19.92;8.70;;;;;;;12.34;100.00;102144.69;5092898;28;20024;-49
2023/06/07 01:36:59;;;;;;;20.23;9.00;;;;;;;12.28;100.00;102135.38;5075017;28;20060;-48
2023/06/07 01:39:25;;;;;;;19.13;9.40;;;;;;;12.24;100.00;102135.84;5082798;28;20449;-48
2023/06/07 01:41:51;;;;;;;19.98;8.02;;;;;;;12.28;100.00;102137.22;5079147;28;20094;-51
2023/06/07 01:44:17;;;;;;;21.17;8.18;;;;;;;12.28;100.00;102139.94;5075769;28;20020;-50
2023/06/07 01:46:43;;;;;;;19.85;8.15;;;;;;;12.27;100.00;102138.25;5073909;28;20032;-48
2023/06/07 01:49:08;;;;;;;23.42;8.07;;;;;;;12.23;100.00;102137.72;5075929;28;20375;-50
2023/06/07 01:51:34;;;;;;;15.18;7.65;;;;;;;12.19;100.00;102130.97;5084005;28;20582;-49
2023/06/07 01:54:00;;;;;;;26.35;8.40;;;;;;;12.13;100.00;102133.44;5084887;28;20046;-50
2023/06/07 01:56:36;;;;;;;18.88;8.63;;;;;;;12.13;100.00;102126.19;5077683;28;20029;-51
2023/06/07 01:59:21;;;;;;;24.08;7.85;;;;;;;12.08;100.00;102128.50;5041652;28;20086;-50
2023/06/07 02:01:58;;;;;;;19.67;7.90;;;;;;;12.07;100.00;102135.78;5086910;28;20481;-49
2023/06/07 02:04:25;;;;;;;18.67;8.55;;;;;;;12.02;100.00;102130.00;5089063;28;20474;-48
2023/06/07 02:06:52;;;;;;;23.98;8.02;;;;;;;12.03;100.00;102131.72;5091275;28;20051;-50
2023/06/07 02:09:19;;;;;;;21.52;8.30;;;;;;;11.98;100.00;102128.66;5084716;28;20021;-51
2023/06/07 02:11:46;;;;;;;14.98;8.07;;;;;;;11.97;100.00;102136.91;5075148;28;20058;-49
2023/06/07 02:14:12;;;;;;;17.67;7.95;;;;;;;11.95;100.00;102144.28;5075099;28;20031;-53
2023/06/07 02:16:37;;;;;;;21.27;7.38;;;;;;;11.99;100.00;102138.44;5070931;28;20032;-51
2023/06/07 02:19:06;;;;;;;22.77;7.93;;;;;;;11.96;100.00;102130.66;5078805;28;20052;-49
2023/06/07 02:21:36;;;;;;;21.27;8.63;;;;;;;11.95;100.00;102134.34;5091109;28;20563;-52
2023/06/07 02:24:03;;;;;;;21.80;7.78;;;;;;;11.92;100.00;102142.75;5089591;28;20035;-48
2023/06/07 02:26:28;;;;;;;15.60;8.02;;;;;;;11.93;100.00;102141.78;5085531;28;20119;-49
2023/06/07 02:28:54;;;;;;;26.05;8.93;;;;;;;11.93;100.00;102136.38;5083882;28;20628;-48
2023/06/07 02:31:22;;;;;;;19.88;8.18;;;;;;;11.93;100.00;102133.69;5083613;28;20028;-52
2023/06/07 02:33:48;;;;;;;;;;;;;;;11.96;100.00;102138.75;5089065;28;20036;-50
2023/06/07 02:36:13;;;;;;;19.88;8.30;;;;;;;11.92;100.00;102131.97;5078371;28;19912;-50
2023/06/07 02:38:39;;;;;;;21.17;9.38;;;;;;;11.96;100.00;102130.66;5072886;28;20497;-49
2023/06/07 02:41:04;;;;;;;23.77;8.80;;;;;;;11.94;100.00;102129.97;5077884;28;20051;-50
2023/06/07 02:43:29;;;;;;;30.05;10.18;;;;;;;11.94;100.00;102129.97;5084818;28;20059;-51
2023/06/07 02:45:55;;;;;;;30.38;10.20;;;;;;;11.96;100.00;102129.81;5077622;28;20031;-51
2023/06/07 02:48:20;;;;;;;27.35;8.63;;;;;;;11.98;100.00;102128.66;5072157;28;20060;-50
2023/06/07 02:50:46;;;;;;;18.88;8.52;;;;;;;11.98;100.00;102134.03;5087542;28;20028;-52
2023/06/07 02:53:11;;;;;;;24.58;9.20;;;;;;;11.96;100.00;102124.41;5082679;28;20023;-48
2023/06/07 02:55:37;;;;;;;31.27;9.15;;;;;;;12.01;100.00;102132.88;5088751;28;20085;-46
2023/06/07 02:58:02;;;;;;;21.08;8.38;;;;;;;12.01;100.00;102122.09;5089028;28;20105;-52
2023/06/07 03:00:27;;;;;;;20.02;7.90;;;;;;;12.01;100.00;102120.22;5088020;28;20498;-49
2023/06/07 03:02:53;;;;;;;25.88;9.38;;;;;;;12.05;100.00;102124.28;5074961;28;20028;-53
2023/06/07 03:05:18;;;;;;;25.30;8.27;;;;;;;12.04;100.00;102128.00;5077182;28;20036;-49
2023/06/07 03:07:46;;;;;;;22.58;7.82;;;;;;;11.99;100.00;102122.25;5089311;28;20547;-49
2023/06/07 03:10:12;;;;;;;21.02;8.40;;;;;;;12.02;100.00;102121.91;5079085;28;20024;-48
2023/06/07 03:12:38;;;;;;;25.45;7.85;;;;;;;12.00;100.00;102121.22;5064913;28;20032;-48
2023/06/07 03:15:03;;;;;;;21.10;8.50;;;;;;;12.02;100.00;102124.59;5069799;28;20433;-49
2023/06/07 03:17:30;;;;;;;23.30;8.57;;;;;;;12.02;100.00;102124.59;5086241;28;20024;-50
2023/06/07 03:19:56;;;;;;;23.83;8.80;;;;;;;12.03;100.00;102129.03;5072268;28;20024;-49
2023/06/07 03:22:22;;;;;;;20.50;8.13;;;;;;;12.01;100.00;102128.31;5069833;28;20025;-49
2023/06/07 03:24:49;;;;;;;21.25;8.45;;;;;;;12.01;100.00;102128.31;5084883;28;20527;-48
2023/06/07 03:27:15;;;;;;;26.20;9.43;;;;;;;12.01;100.00;102136.41;5090027;28;20060;-48
2023/06/07 03:29:41;;;;;;;25.40;9.23;;;;;;;12.00;100.00;102129.31;5080042;28;20533;-49
2023/06/07 03:32:07;;;;;;;20.60;8.75;;;;;;;12.06;100.00;102131.41;5070381;28;20032;-52
2023/06/07 03:34:32;;;;;;;27.67;9.27;;;;;;;12.02;100.00;102124.59;5053855;28;20056;-51
2023/06/07 03:36:58;;;;;;;24.05;8.43;;;;;;;12.03;100.00;102130.84;5071815;28;20091;-51
2023/06/07 03:39:24;;;;;;;27.17;8.75;;;;;;;12.06;100.00;102131.41;5076229;28;20431;-49
2023/06/07 03:41:49;;;;;;;25.00;8.90;;;;;;;12.11;100.00;102135.44;5069622;28;20060;-51
2023/06/07 03:44:15;;;;;;;25.50;8.75;;;;;;;12.07;100.00;102130.38;5080796;28;20042;-52
2023/06/07 03:46:41;;;;;;;24.77;8.63;;;;;;;12.11;100.00;102127.34;5075592;28;20020;-51
2023/06/07 03:49:07;;;;;;;30.25;8.85;;;;;;;12.11;100.00;102130.03;5087398;28;20111;-51
2023/06/07 03:51:32;;;;;;;24.52;9.20;;;;;;;12.11;100.00;102127.34;5091300;28;20460;-48
2023/06/07 03:53:58;;;;;;;33.63;9.90;;;;;;;12.08;100.00;102128.50;5083554;28;20059;-48
2023/06/07 03:56:25;;;;;;;25.25;8.95;;;;;;;12.11;100.00;102127.34;5077242;28;20087;-51
2023/06/07 03:58:53;;;;;;;27.67;9.70;;;;;;;12.11;100.00;102136.28;5071370;28;20051;-48
2023/06/07 04:01:18;;;;;;;24.08;9.45;;;;;;;12.08;100.00;102137.47;5080013;28;20032;-49
2023/06/07 04:03:44;;;;;;;32.05;9.60;;;;;;;12.07;100.00;102127.69;5082982;28;20028;-49
2023/06/07 04:06:09;;;;;;;19.02;8.07;;;;;;;12.12;100.00;102124.50;5068100;28;20028;-52
2023/06/07 04:08:38;;;;;;;25.70;9.20;;;;;;;12.14;100.00;102132.41;5069613;28;20093;-48
2023/06/07 04:11:04;;;;;;;20.80;8.80;;;;;;;12.13;100.00;102136.13;5070686;28;20029;-46
2023/06/07 04:13:30;;;;;;;28.45;8.90;;;;;;;12.14;100.00;102135.13;5069415;28;20024;-48
2023/06/07 04:15:55;;;;;;;23.58;8.50;;;;;;;12.12;100.00;102129.06;5070756;28;20024;-48
2023/06/07 04:18:21;;;;;;;25.70;8.93;;;;;;;12.13;100.00;102126.19;5071133;28;20041;-50
2023/06/07 04:20:46;;;;;;;24.75;8.15;;;;;;;12.13;100.00;102123.47;5082578;28;20032;-49
2023/06/07 04:23:11;;;;;;;22.90;8.43;;;;;;;12.14;100.00;102125.19;5070213;28;20036;-48
2023/06/07 04:25:38;;;;;;;23.45;8.70;;;;;;;12.20;100.00;102131.78;5090100;28;20028;-49
2023/06/07 04:28:03;;;;;;;23.33;7.72;;;;;;;12.20;100.00;102131.78;5090981;28;20036;-50
2023/06/07 04:30:34;;;;;;;24.98;7.90;;;;;;;12.29;100.00;102128.13;5083690;28;20466;-49
2023/06/07 04:33:09;;;;;;;25.80;7.55;;;;;;;12.28;100.00;102129.97;5074366;28;20031;-51
2023/06/07 04:35:35;;;;;;;21.58;7.90;;;;;;;12.29;100.00;102130.81;5086573;28;20029;-51
2023/06/07 04:38:04;;;;;;;26.52;8.10;;;;;;;12.25;100.00;102134.88;5070274;28;20508;-52
2023/06/07 04:40:30;;;;;;;24.83;7.57;;;;;;;12.24;100.00;102134.03;5075752;28;20031;-49
2023/06/07 04:43:08;;;;;;;22.75;6.85;;;;;;;12.26;100.00;102131.16;5090317;28;20558;-52
2023/06/07 04:45:40;;;;;;;23.63;8.63;;;;;;;12.26;100.00;102131.97;5067384;28;20055;-51
2023/06/07 04:48:07;;;;;;;24.48;8.82;;;;;;;12.28;100.00;102129.97;5071854;28;20037;-48
2023/06/07 04:50:33;;;;;;;29.20;7.75;;;;;;;12.32;100.00;102127.78;5088487;28;20035;-50
2023/06/07 04:53:03;;;;;;;31.23;8.13;;;;;;;12.37;100.00;102136.25;5101964;28;20024;-49
2023/06/07 04:55:34;;;;;;;24.88;7.38;;;;;;;12.41;100.00;102128.69;5081601;28;20090;-50
2023/06/07 04:58:04;;;;;;;19.50;7.32;;;;;;;12.43;100.00;102132.91;5073835;28;20113;-52
2023/06/07 05:00:30;;;;;;;17.90;7.13;;;;;;;12.46;100.00;102134.44;5072500;28;20020;-48
2023/06/07 05:02:56;;;;;;;19.27;7.20;;;;;;;12.48;100.00;102138.69;5105761;28;20095;-49
2023/06/07 05:05:21;;;;;;;23.83;7.70;;;;;;;12.46;100.00;102138.00;5071505;28;20421;-51
2023/06/07 05:07:49;;;;;;;25.13;7.43;;;;;;;12.41;100.00;102134.09;5078040;28;20382;-51
2023/06/07 05:10:17;;;;;;;22.88;7.55;;;;;;;12.40;100.00;102126.97;5067910;28;20032;-52
2023/06/07 05:12:42;;;;;;;;;;;;;;;12.41;100.00;102129.53;5071164;28;20032;-51
2023/06/07 05:15:08;;;;;;;19.55;6.03;;;;;;;12.44;100.00;102131.91;5084098;28;19918;-49
2023/06/07 05:17:34;;;;;;;13.20;6.43;;;;;;;12.48;100.00;102135.97;5081075;28;20025;-53
2023/06/07 05:19:59;;;;;;;23.17;6.35;;;;;;;12.51;100.00;102141.06;5079808;28;20039;-49
2023/06/07 05:22:25;;;;;;;11.52;5.95;;;;;;;12.56;100.00;102137.00;5082109;28;20032;-51
2023/06/07 05:24:50;;;;;;;21.85;6.75;;;;;;;12.59;100.00;102139.41;5065666;28;20135;-50
2023/06/07 05:27:16;;;;;;;20.75;6.68;;;;;;;12.54;100.00;102129.06;5089391;28;20421;-48
2023/06/07 05:29:41;;;;;;;21.30;5.68;;;;;;;12.62;100.00;102133.66;5092918;28;20382;-50
2023/06/07 05:32:07;;;;;;;23.48;6.43;;;;;;;12.77;100.00;102134.72;5090364;28;20066;-48
2023/06/07 05:34:32;;;;;;;17.80;6.25;;;;;;;12.82;100.00;102132.38;5074395;28;20024;-49
2023/06/07 05:37:00;;;;;;;24.23;6.75;;;;;;;12.82;100.00;102132.38;5087095;28;20103;-49
2023/06/07 05:39:26;;;;;;;19.90;6.57;;;;;;;12.81;100.00;102132.53;5072674;28;20115;-50
2023/06/07 05:41:51;;;;;;;16.30;5.82;;;;;;;12.88;100.00;102134.41;5090646;28;20070;-50
2023/06/07 05:44:16;;;;;;;20.27;6.43;;;;;;;12.87;100.00;102139.97;5092093;28;20159;-50
2023/06/07 05:46:42;;;;;;;19.63;6.03;;;;;;;12.89;100.00;102133.38;5092422;28;20055;-51
2023/06/07 05:49:07;;;;;;;17.58;6.47;;;;;;;12.98;100.00;102133.41;5091455;28;20089;-50
2023/06/07 05:51:34;;;;;;;22.75;6.38;;;;;;;13.05;100.00;102134.44;5074847;28;20031;-50
2023/06/07 05:53:59;;;;;;;15.57;5.93;;;;;;;13.14;100.00;102133.44;5092048;28;20024;-49
2023/06/07 05:56:27;;;;;;;21.05;6.30;;;;;;;13.26;100.00;102136.66;5093051;28;20367;-49
2023/06/07 05:58:53;;;;;;;20.70;5.45;;;;;;;13.36;100.00;102135.50;5085922;28;20072;-52
2023/06/07 06:01:18;;;;;;;26.23;6.32;;;;;;;13.47;100.00;102137.03;5071144;28;20063;-49
2023/06/07 06:03:44;;;;;;;18.58;6.50;;;;;;;13.59;100.00;102124.84;5072772;28;20028;-49
2023/06/07 06:06:14;;;;;;;18.20;5.30;;;;;;;13.79;100.00;102130.72;5071693;28;20025;-49
2023/06/07 06:08:41;;;;;;;19.42;5.18;;;;;;;14.02;100.00;102133.56;5079332;28;20024;-53
2023/06/07 06:11:07;;;;;;;19.20;5.65;;;;;;;14.19;100.00;102115.44;5089530;28;20657;-50
2023/06/07 06:13:32;;;;;;;15.82;5.60;;;;;;;14.38;100.00;102122.28;5072328;28;20078;-48
2023/06/07 06:15:58;;;;;;;23.25;6.07;;;;;;;14.49;100.00;102121.06;5081836;28;20040;-49
2023/06/07 06:18:23;;;;;;;21.27;4.57;;;;;;;14.49;100.00;102115.63;5091146;28;20440;-49
2023/06/07 06:20:48;;;;;;;16.27;5.95;;;;;;;14.65;100.00;102115.56;5062516;28;20043;-49
2023/06/07 06:23:14;;;;;;;25.33;5.55;;;;;;;14.95;100.00;102113.00;5070570;28;20043;-50
2023/06/07 06:25:40;;;;;;;17.52;4.53;;;;;;;15.27;100.00;102111.09;5072769;28;20043;-52
2023/06/07 06:28:05;;;;;;;13.80;4.15;;;;;;;15.53;100.00;102114.28;5070824;28;20020;-51
2023/06/07 06:30:31;;;;;;;18.85;5.03;;;;;;;15.55;100.00;102119.50;5070025;28;20116;-49
2023/06/07 06:32:56;;;;;;;20.02;5.07;;;;;;;15.52;100.00;102120.72;5071594;28;20028;-50
2023/06/07 06:35:22;;;;;;;15.95;4.60;;;;;;;15.46;100.00;102129.59;5078820;28;20086;-50
2023/06/07 06:37:48;;;;;;;16.70;4.28;;;;;;;15.49;100.00;102122.97;5074734;28;20418;-53
2023/06/07 06:40:13;;;;;;;22.58;5.25;;;;;;;15.54;100.00;102129.50;5066806;28;20600;-51
2023/06/07 06:42:38;;;;;;;20.33;5.00;;;;;;;15.63;100.00;102126.72;5077471;28;20069;-51
2023/06/07 06:45:05;;;;;;;18.50;5.05;;;;;;;15.71;100.00;102132.09;5085721;28;20035;-51
2023/06/07 06:47:30;;;;;;;17.52;4.38;;;;;;;15.72;100.00;102121.06;5086656;28;20078;-50
2023/06/07 06:49:56;;;;;;;23.15;5.05;;;;;;;15.81;100.00;102124.53;5084589;28;20016;-52
2023/06/07 06:52:21;;;;;;;18.38;4.53;;;;;;;15.92;100.00;102134.09;5082722;28;20020;-51
2023/06/07 06:54:46;;;;;;;20.13;4.75;;;;;;;16.12;100.00;102131.69;5084540;28;20185;-51
2023/06/07 06:57:12;;;;;;;19.55;4.15;;;;;;;16.42;100.00;102130.63;5085877;28;20492;-49
2023/06/07 06:59:37;;;;;;;14.75;3.97;;;;;;;16.94;100.00;102136.09;5082544;28;20044;-50
2023/06/07 07:02:03;;;;;;;21.30;5.05;;;;;;;17.46;100.00;102130.31;5085127;28;20028;-50
2023/06/07 07:04:29;;;;;;;13.43;3.92;;;;;;;18.45;100.00;102126.59;5086297;28;20028;-50
2023/06/07 07:06:55;;;;;;;20.23;4.95;;;;;;;19.26;100.00;102133.97;5086484;28;20465;-49
2023/06/07 07:09:21;;;;;;;13.65;4.05;;;;;;;20.08;100.00;102131.84;5086220;28;20098;-50
2023/06/07 07:11:46;;;;;;;12.95;4.10;;;;;;;20.65;99.25;102135.69;5082274;28;20122;-51
2023/06/07 07:14:12;;;;;;;10.65;3.75;;;;;;;21.03;95.62;102137.59;5083522;28;20020;-51
2023/06/07 07:16:39;;;;;;;13.68;3.88;;;;;;;21.63;93.40;102134.44;5085921;28;20047;-50
2023/06/07 07:19:05;;;;;;;;;;;;;;;22.01;89.37;102137.03;5085089;28;20408;-50
2023/06/07 07:21:30;;;;;;;14.53;3.60;;;;;;;22.60;87.74;102134.69;5084925;28;19916;-51
2023/06/07 07:23:55;;;;;;;13.23;3.80;;;;;;;22.98;85.18;102128.88;5084434;28;20765;-51
2023/06/07 07:26:21;;;;;;;15.48;3.45;;;;;;;22.97;81.77;102140.94;5066393;28;20787;-50
2023/06/07 07:28:46;;;;;;;14.40;3.85;;;;;;;23.00;83.62;102132.25;5082717;28;20039;-49
2023/06/07 07:31:13;;;;;;;14.93;3.97;;;;;;;23.49;80.26;102132.13;5085578;28;20488;-54
2023/06/07 07:33:39;;;;;;;15.10;4.18;;;;;;;24.06;76.35;102126.03;5085647;28;20401;-50
2023/06/07 07:36:05;;;;;;;9.02;3.85;;;;;;;24.03;76.12;102127.34;5085472;28;20028;-53
2023/06/07 07:38:32;;;;;;;10.43;3.30;;;;;;;23.98;76.74;102135.50;5085851;28;20043;-55
2023/06/07 07:40:59;;;;;;;9.50;3.55;;;;;;;24.34;73.17;102139.03;5082912;28;20028;-51
2023/06/07 07:43:24;;;;;;;12.95;3.67;;;;;;;23.98;77.01;102134.66;5067384;28;20941;-51
2023/06/07 07:45:50;;;;;;;8.65;3.35;;;;;;;23.71;76.33;102132.38;5085269;28;20112;-49
2023/06/07 07:48:15;;;;;;;9.32;3.50;;;;;;;24.07;75.62;102144.22;5083858;28;20043;-54
2023/06/07 07:50:40;;;;;;;10.70;3.33;;;;;;;24.13;74.07;102136.94;5082886;28;20035;-50
2023/06/07 07:53:06;;;;;;;9.35;3.50;;;;;;;23.49;75.17;102147.78;5084190;28;20075;-50
2023/06/07 07:55:32;;;;;;;13.10;3.33;;;;;;;23.15;77.82;102141.97;5085145;28;20028;-51
2023/06/07 07:57:58;;;;;;;12.20;3.38;;;;;;;23.28;76.46;102140.94;5064551;28;20054;-51
2023/06/07 08:00:24;;;;;;;10.13;3.33;;;;;;;23.22;77.17;102138.06;5083208;28;20036;-51
2023/06/07 08:02:50;;;;;;;15.05;3.78;;;;;;;22.79;79.11;102139.06;5082405;28;20076;-49
2023/06/07 08:05:15;;;;;;;9.35;3.70;;;;;;;22.54;80.56;102132.88;5080471;28;20887;-50
2023/06/07 08:07:41;;;;;;;21.00;3.97;;;;;;;22.62;82.38;102123.44;5079660;28;20360;-52
2023/06/07 08:10:08;;;;;;;13.20;3.70;;;;;;;22.71;83.41;102133.06;5082320;28;20065;-51
2023/06/07 08:12:33;;;;;;;10.88;3.58;;;;;;;23.00;82.39;102134.97;5080154;28;20036;-52
2023/06/07 08:14:59;;;;;;;11.70;3.47;;;;;;;23.66;77.79;102121.25;5084593;28;20423;-50
2023/06/07 08:17:24;;;;;;;13.60;3.65;;;;;;;23.86;77.06;102127.25;5085045;28;20488;-52
2023/06/07 08:19:50;;;;;;;17.35;4.10;;;;;;;23.76;77.78;102126.19;5084460;28;20134;-49
2023/06/07 08:22:15;;;;;;;12.70;3.90;;;;;;;23.59;76.26;102131.50;5083297;28;20366;-51
2023/06/07 08:24:41;;;;;;;16.48;3.90;;;;;;;22.66;78.72;102125.50;5080827;28;20024;-50
2023/06/07 08:27:07;;;;;;;10.20;3.72;;;;;;;22.87;81.83;102129.66;5081493;28;20053;-52
2023/06/07 08:29:32;;;;;;;12.68;3.58;;;;;;;23.19;78.06;102126.69;5082678;28;20639;-50
2023/06/07 08:31:57;;;;;;;12.80;3.45;;;;;;;23.81;77.32;102113.41;5082458;28;20024;-53
2023/06/07 08:34:28;;;;;;;17.45;3.88;;;;;;;24.59;75.40;102122.22;5083215;28;20115;-50
2023/06/07 08:36:57;;;;;;;16.75;3.80;;;;;;;25.38;71.43;102122.34;5082691;28;20085;-52
2023/06/07 08:39:22;;;;;;;16.15;3.65;;;;;;;25.55;69.38;102116.81;5065593;28;20525;-53
2023/06/07 08:41:48;;;;;;;12.95;3.72;;;;;;;25.32;69.74;102117.00;5084509;28;20523;-53
2023/06/07 08:44:13;;;;;;;15.75;4.03;;;;;;;24.99;71.76;102102.09;5067274;28;20489;-50
2023/06/07 08:46:39;;;;;;;13.35;3.45;;;;;;;25.19;72.25;102116.22;5085143;28;20059;-50
2023/06/07 08:49:05;;;;;;;11.60;3.58;;;;;;;26.01;68.62;102120.31;5081992;28;20032;-52
2023/06/07 08:51:33;;;;;;;13.82;3.83;;;;;;;26.14;66.71;102115.47;5079913;28;20028;-52
2023/06/07 08:54:02;;;;;;;10.68;3.33;;;;;;;26.41;67.58;102113.63;5069689;28;20036;-51
2023/06/07 08:56:31;;;;;;;10.85;3.90;;;;;;;26.66;63.82;102117.81;5077535;28;20490;-50
2023/06/07 08:58:59;;;;;;;8.55;3.53;;;;;;;26.68;63.86;102118.41;5083624;28;20044;-49
2023/06/07 09:01:25;;;;;;;14.43;3.65;;;;;;;26.84;63.60;102120.22;5084029;28;20040;-48
2023/06/07 09:03:54;;;;;;;15.75;3.45;;;;;;;27.06;63.30;102124.84;5083164;28;20028;-52
2023/06/07 09:06:21;;;;;;;13.68;3.05;;;;;;;27.40;60.63;102124.63;5082662;28;20123;-54
2023/06/07 09:08:46;;;;;;;13.45;3.80;;;;;;;26.92;61.96;102124.44;5081356;28;20063;-48
2023/06/07 09:11:12;;;;;;;12.30;3.35;;;;;;;27.10;61.04;102126.00;5083795;28;20119;-50
2023/06/07 09:13:38;;;;;;;11.27;3.40;;;;;;;27.04;61.36;102132.56;5084164;28;20068;-52
2023/06/07 09:16:04;;;;;;;11.82;3.67;;;;;;;27.57;60.92;102130.84;5079994;28;20485;-49
2023/06/07 09:18:42;;;;;;;11.82;3.40;;;;;;;27.66;59.99;102129.25;5082474;28;20150;-50
2023/06/07 09:21:35;;;;;;;11.90;3.60;;;;;;;27.77;60.02;102125.44;5068778;28;20085;-50
2023/06/07 09:24:00;;;;;;;10.43;3.88;;;;;;;27.67;60.47;102119.84;5064226;28;20052;-49
2023/06/07 09:26:36;;;;;;;11.63;3.92;;;;;;;27.93;59.04;102117.28;5069465;28;20029;-49
2023/06/07 09:29:09;;;;;;;13.07;3.92;;;;;;;28.00;60.97;102107.63;5067944;28;20028;-48
2023/06/07 09:31:35;;;;;;;12.90;3.88;;;;;;;28.48;58.62;102113.13;5068130;28;20031;-50
2023/06/07 09:34:26;;;;;;;13.32;3.53;;;;;;;28.54;58.77;102112.06;5069549;28;20029;-50
2023/06/07 09:36:53;;;;;;;14.55;4.13;;;;;;;28.64;55.61;102114.81;5069336;28;20029;-48
2023/06/07 09:39:21;;;;;;;14.32;4.40;;;;;;;28.27;56.34;102108.59;5051518;28;20023;-53
2023/06/07 09:41:46;;;;;;;10.57;3.70;;;;;;;28.10;57.68;102112.38;5073448;28;20234;-47
2023/06/07 09:44:20;;;;;;;11.85;3.55;;;;;;;28.01;58.29;102108.47;5072680;28;20487;-48
2023/06/07 09:46:45;;;;;;;14.77;3.47;;;;;;;28.05;59.69;102104.06;5072786;28;20028;-48
2023/06/07 09:49:11;;;;;;;13.55;3.97;;;;;;;28.38;58.75;102101.97;5072394;28;20045;-49
2023/06/07 09:51:40;;;;;;;19.83;4.15;;;;;;;28.44;57.91;102106.47;5072390;28;20028;-53
2023/06/07 09:54:08;;;;;;;13.50;4.00;;;;;;;28.44;57.48;102103.72;5072425;28;20099;-50
2023/06/07 09:56:38;;;;;;;14.57;4.43;;;;;;;28.22;57.59;102101.91;5071285;28;20028;-50
2023/06/07 09:59:09;;;;;;;12.40;3.53;;;;;;;28.50;56.32;102099.84;5072504;28;20056;-49
2023/06/07 10:01:43;;;;;;;10.55;3.90;;;;;;;28.78;55.75;102108.75;5072410;28;20024;-48
2023/06/07 10:04:09;;;;;;;10.50;3.63;;;;;;;28.88;55.74;102106.00;5071080;28;20090;-49
2023/06/07 10:06:41;;;;;;;15.77;4.00;;;;;;;28.91;52.90;102105.44;5072584;28;20165;-50
2023/06/07 10:09:07;;;;;;;10.55;4.25;;;;;;;28.60;54.46;102107.34;5071906;28;20047;-52
2023/06/07 10:11:34;;;;;;;16.47;3.70;;;;;;;29.04;52.16;102109.63;5079276;28;20582;-51
2023/06/07 10:14:06;;;;;;;12.85;4.60;;;;;;;28.97;52.05;102098.00;5077144;28;20304;-51
2023/06/07 10:16:34;;;;;;;13.27;3.80;;;;;;;28.90;52.01;102098.25;5072270;28;20111;-48
2023/06/07 10:19:03;;;;;;;10.00;3.70;;;;;;;28.79;54.05;102097.41;5071151;28;20434;-49
2023/06/07 10:21:31;;;;;;;13.00;3.90;;;;;;;28.66;55.32;102087.69;5070857;28;20037;-50
2023/06/07 10:23:58;;;;;;;18.10;4.93;;;;;;;28.75;54.34;102093.50;5070507;28;20031;-52
2023/06/07 10:26:25;;;;;;;10.80;4.03;;;;;;;29.48;50.73;102098.84;5070206;28;20032;-50
2023/06/07 10:28:59;;;;;;;13.55;4.25;;;;;;;29.06;50.02;102091.63;5078005;28;20158;-52
2023/06/07 10:31:27;;;;;;;9.25;4.25;;;;;;;28.75;52.96;102095.44;5081581;28;20028;-50
2023/06/07 10:33:55;;;;;;;9.63;3.92;;;;;;;28.94;53.37;102093.84;5092396;28;20047;-50
2023/06/07 10:36:23;;;;;;;14.52;4.10;;;;;;;29.13;52.40;102085.00;5091699;28;20110;-49
2023/06/07 10:38:50;;;;;;;12.10;4.10;;;;;;;29.21;51.83;102084.44;5090371;28;20059;-49
2023/06/07 10:41:17;;;;;;;11.10;3.60;;;;;;;29.52;52.47;102083.31;5091800;28;20080;-51
2023/06/07 10:43:46;;;;;;;16.60;4.32;;;;;;;29.80;51.67;102089.38;5084448;28;20035;-49
2023/06/07 10:46:23;;;;;;;12.15;4.63;;;;;;;29.80;50.80;102083.81;5079973;28;20032;-51
2023/06/07 10:48:49;;;;;;;13.25;3.83;;;;;;;29.40;53.99;102077.22;5078286;28;20085;-51
2023/06/07 10:51:15;;;;;;;11.97;3.30;;;;;;;29.12;56.02;102078.59;5075706;28;20032;-49
2023/06/07 10:53:50;;;;;;;11.60;3.80;;;;;;;29.23;54.21;102065.59;5082324;28;20031;-52
2023/06/07 10:56:27;;;;;;;10.75;3.47;;;;;;;29.35;56.29;102066.13;5080446;28;20028;-49
2023/06/07 10:58:52;;;;;;;9.27;3.38;;;;;;;29.80;53.97;102069.13;5091439;28;20543;-51
2023/06/07 11:01:25;;;;;;;8.60;3.13;;;;;;;29.13;58.10;102071.97;5085073;28;20039;-50
2023/06/07 11:03:50;;;;;;;11.10;3.13;;;;;;;29.42;56.29;102061.13;5090973;28;20158;-47
2023/06/07 11:06:16;;;;;;;17.67;3.73;;;;;;;29.32;57.47;102055.59;5087859;28;20052;-47
2023/06/07 11:08:42;;;;;;;23.75;3.65;;;;;;;29.25;58.18;102060.59;5089420;28;20107;-49
2023/06/07 11:11:39;;;;;;;19.17;3.80;;;;;;;28.71;59.08;102061.13;5076041;28;20041;-52
2023/06/07 11:14:05;;;;;;;14.13;3.42;;;;;;;28.75;60.38;102062.22;5033770;28;20075;-48